sensor_id;sensor_type;location;lat;lon;timestamp;P1;durP1;ratioP1;P2;durP2;ratioP2
4122;SDS011;2075;51.062;6.920;2022-10-26T00:01:17;2.37;;;2.20;;
4122;SDS011;2075;51.062;6.920;2022-10-26T00:04:03;7.93;;;2.07;;
4122;SDS011;2075;51.062;6.920;2022-10-26T00:06:49;9.00;;;2.33;;
4122;SDS011;2075;51.062;6.920;2022-10-26T00:09:34;4.30;;;2.70;;
4122;SDS011;2075;51.062;6.920;2022-10-26T00:12:19;3.17;;;2.90;;
4122;SDS011;2075;51.062;6.920;2022-10-26T00:15:07;5.70;;;2.40;;
4122;SDS011;2075;51.062;6.920;2022-10-26T00:17:53;4.77;;;2.43;;
4122;SDS011;2075;51.062;6.920;2022-10-26T00:20:38;8.37;;;2.73;;
4122;SDS011;2075;51.062;6.920;2022-10-26T00:23:24;4.03;;;2.30;;
4122;SDS011;2075;51.062;6.920;2022-10-26T00:26:10;4.10;;;2.07;;
4122;SDS011;2075;51.062;6.920;2022-10-26T00:28:56;6.60;;;2.47;;
4122;SDS011;2075;51.062;6.920;2022-10-26T00:31:42;9.27;;;3.20;;
4122;SDS011;2075;51.062;6.920;2022-10-26T00:34:28;3.33;;;2.30;;
4122;SDS011;2075;51.062;6.920;2022-10-26T00:37:13;4.80;;;2.47;;
4122;SDS011;2075;51.062;6.920;2022-10-26T00:39:58;2.30;;;2.20;;
4122;SDS011;2075;51.062;6.920;2022-10-26T00:42:44;6.30;;;2.50;;
4122;SDS011;2075;51.062;6.920;2022-10-26T00:45:29;4.40;;;2.47;;
4122;SDS011;2075;51.062;6.920;2022-10-26T00:48:17;7.70;;;2.33;;
4122;SDS011;2075;51.062;6.920;2022-10-26T00:51:08;4.77;;;2.20;;
4122;SDS011;2075;51.062;6.920;2022-10-26T00:53:56;3.10;;;2.23;;
4122;SDS011;2075;51.062;6.920;2022-10-26T00:56:43;2.40;;;2.20;;
4122;SDS011;2075;51.062;6.920;2022-10-26T00:59:30;6.03;;;2.13;;
4122;SDS011;2075;51.062;6.920;2022-10-26T01:02:16;14.13;;;2.50;;
4122;SDS011;2075;51.062;6.920;2022-10-26T01:05:03;3.87;;;2.30;;
4122;SDS011;2075;51.062;6.920;2022-10-26T01:07:50;10.97;;;2.10;;
4122;SDS011;2075;51.062;6.920;2022-10-26T01:10:37;5.70;;;2.13;;
4122;SDS011;2075;51.062;6.920;2022-10-26T01:13:24;3.20;;;2.40;;
4122;SDS011;2075;51.062;6.920;2022-10-26T01:16:16;6.03;;;2.40;;
4122;SDS011;2075;51.062;6.920;2022-10-26T01:19:30;3.30;;;2.17;;
4122;SDS011;2075;51.062;6.920;2022-10-26T01:22:38;7.90;;;2.20;;
4122;SDS011;2075;51.062;6.920;2022-10-26T01:25:37;4.67;;;1.90;;
4122;SDS011;2075;51.062;6.920;2022-10-26T01:28:30;4.67;;;2.13;;
4122;SDS011;2075;51.062;6.920;2022-10-26T01:31:28;3.90;;;2.00;;
4122;SDS011;2075;51.062;6.920;2022-10-26T01:34:18;2.73;;;2.07;;
4122;SDS011;2075;51.062;6.920;2022-10-26T01:37:09;5.93;;;2.13;;
4122;SDS011;2075;51.062;6.920;2022-10-26T01:39:59;8.70;;;2.13;;
4122;SDS011;2075;51.062;6.920;2022-10-26T01:42:50;6.47;;;2.60;;
4122;SDS011;2075;51.062;6.920;2022-10-26T01:45:39;4.10;;;2.20;;
4122;SDS011;2075;51.062;6.920;2022-10-26T01:48:29;4.07;;;2.13;;
4122;SDS011;2075;51.062;6.920;2022-10-26T01:51:15;7.00;;;2.30;;
4122;SDS011;2075;51.062;6.920;2022-10-26T01:54:01;6.80;;;2.27;;
4122;SDS011;2075;51.062;6.920;2022-10-26T01:56:47;4.13;;;2.10;;
4122;SDS011;2075;51.062;6.920;2022-10-26T01:59:42;3.30;;;2.20;;
4122;SDS011;2075;51.062;6.920;2022-10-26T02:02:57;5.90;;;2.33;;
4122;SDS011;2075;51.062;6.920;2022-10-26T02:05:52;2.10;;;1.90;;
4122;SDS011;2075;51.062;6.920;2022-10-26T02:09:01;4.13;;;1.90;;
4122;SDS011;2075;51.062;6.920;2022-10-26T02:11:56;3.33;;;2.27;;
4122;SDS011;2075;51.062;6.920;2022-10-26T02:14:44;2.37;;;2.17;;
4122;SDS011;2075;51.062;6.920;2022-10-26T02:17:33;5.07;;;2.37;;
4122;SDS011;2075;51.062;6.920;2022-10-26T02:20:27;5.57;;;2.13;;
4122;SDS011;2075;51.062;6.920;2022-10-26T02:23:16;3.73;;;2.60;;
4122;SDS011;2075;51.062;6.920;2022-10-26T02:26:04;2.90;;;2.17;;
4122;SDS011;2075;51.062;6.920;2022-10-26T02:28:57;8.03;;;2.20;;
4122;SDS011;2075;51.062;6.920;2022-10-26T02:31:46;4.30;;;2.07;;
4122;SDS011;2075;51.062;6.920;2022-10-26T02:34:34;2.70;;;1.90;;
4122;SDS011;2075;51.062;6.920;2022-10-26T02:37:22;5.70;;;2.00;;
4122;SDS011;2075;51.062;6.920;2022-10-26T02:40:12;4.20;;;2.17;;
4122;SDS011;2075;51.062;6.920;2022-10-26T02:43:06;2.20;;;2.00;;
4122;SDS011;2075;51.062;6.920;2022-10-26T02:45:58;2.00;;;1.90;;
4122;SDS011;2075;51.062;6.920;2022-10-26T02:48:47;6.50;;;1.90;;
4122;SDS011;2075;51.062;6.920;2022-10-26T02:51:33;6.70;;;2.07;;
4122;SDS011;2075;51.062;6.920;2022-10-26T02:54:23;4.77;;;2.07;;
4122;SDS011;2075;51.062;6.920;2022-10-26T02:57:16;9.50;;;2.63;;
4122;SDS011;2075;51.062;6.920;2022-10-26T03:00:07;3.10;;;2.20;;
4122;SDS011;2075;51.062;6.920;2022-10-26T03:02:56;4.97;;;1.90;;
4122;SDS011;2075;51.062;6.920;2022-10-26T03:05:42;7.03;;;2.03;;
4122;SDS011;2075;51.062;6.920;2022-10-26T03:08:28;17.40;;;3.17;;
4122;SDS011;2075;51.062;6.920;2022-10-26T03:11:13;3.50;;;2.30;;
4122;SDS011;2075;51.062;6.920;2022-10-26T03:14:00;5.20;;;1.97;;
4122;SDS011;2075;51.062;6.920;2022-10-26T03:16:45;5.23;;;2.00;;
4122;SDS011;2075;51.062;6.920;2022-10-26T03:19:31;5.40;;;2.00;;
4122;SDS011;2075;51.062;6.920;2022-10-26T03:22:16;5.93;;;2.37;;
4122;SDS011;2075;51.062;6.920;2022-10-26T03:25:02;11.93;;;2.57;;
4122;SDS011;2075;51.062;6.920;2022-10-26T03:27:54;7.73;;;2.70;;
4122;SDS011;2075;51.062;6.920;2022-10-26T03:30:42;4.13;;;2.63;;
4122;SDS011;2075;51.062;6.920;2022-10-26T03:33:27;7.40;;;2.60;;
4122;SDS011;2075;51.062;6.920;2022-10-26T03:36:13;2.60;;;2.30;;
4122;SDS011;2075;51.062;6.920;2022-10-26T03:38:58;7.93;;;2.40;;
4122;SDS011;2075;51.062;6.920;2022-10-26T03:41:43;5.03;;;2.37;;
4122;SDS011;2075;51.062;6.920;2022-10-26T03:44:29;2.87;;;2.63;;
4122;SDS011;2075;51.062;6.920;2022-10-26T03:47:16;7.30;;;2.60;;
4122;SDS011;2075;51.062;6.920;2022-10-26T03:50:01;4.30;;;2.60;;
4122;SDS011;2075;51.062;6.920;2022-10-26T03:52:47;6.60;;;2.30;;
4122;SDS011;2075;51.062;6.920;2022-10-26T03:55:33;14.07;;;2.63;;
4122;SDS011;2075;51.062;6.920;2022-10-26T03:58:18;3.90;;;2.27;;
4122;SDS011;2075;51.062;6.920;2022-10-26T04:01:04;3.57;;;2.80;;
4122;SDS011;2075;51.062;6.920;2022-10-26T04:03:50;4.03;;;2.43;;
4122;SDS011;2075;51.062;6.920;2022-10-26T04:06:36;4.17;;;2.40;;
4122;SDS011;2075;51.062;6.920;2022-10-26T04:09:22;2.80;;;2.40;;
4122;SDS011;2075;51.062;6.920;2022-10-26T04:12:07;5.40;;;3.00;;
4122;SDS011;2075;51.062;6.920;2022-10-26T04:14:52;6.00;;;2.90;;
4122;SDS011;2075;51.062;6.920;2022-10-26T04:17:40;8.73;;;3.30;;
4122;SDS011;2075;51.062;6.920;2022-10-26T04:20:28;2.57;;;2.37;;
4122;SDS011;2075;51.062;6.920;2022-10-26T04:23:14;5.97;;;3.27;;
4122;SDS011;2075;51.062;6.920;2022-10-26T04:26:01;8.43;;;2.40;;
4122;SDS011;2075;51.062;6.920;2022-10-26T04:28:48;10.90;;;3.10;;
4122;SDS011;2075;51.062;6.920;2022-10-26T04:31:33;7.40;;;2.80;;
4122;SDS011;2075;51.062;6.920;2022-10-26T04:34:19;7.00;;;2.50;;
4122;SDS011;2075;51.062;6.920;2022-10-26T04:37:05;6.37;;;2.27;;
4122;SDS011;2075;51.062;6.920;2022-10-26T04:39:51;5.10;;;2.90;;
4122;SDS011;2075;51.062;6.920;2022-10-26T04:42:40;4.27;;;2.47;;
4122;SDS011;2075;51.062;6.920;2022-10-26T04:45:26;10.07;;;2.87;;
4122;SDS011;2075;51.062;6.920;2022-10-26T04:48:13;3.63;;;2.47;;
4122;SDS011;2075;51.062;6.920;2022-10-26T04:50:59;7.77;;;2.50;;
4122;SDS011;2075;51.062;6.920;2022-10-26T04:53:46;3.73;;;2.30;;
4122;SDS011;2075;51.062;6.920;2022-10-26T04:56:31;3.63;;;2.77;;
4122;SDS011;2075;51.062;6.920;2022-10-26T04:59:17;4.67;;;2.47;;
4122;SDS011;2075;51.062;6.920;2022-10-26T05:02:03;8.90;;;3.00;;
4122;SDS011;2075;51.062;6.920;2022-10-26T05:04:48;2.60;;;2.40;;
4122;SDS011;2075;51.062;6.920;2022-10-26T05:07:34;2.80;;;2.60;;
4122;SDS011;2075;51.062;6.920;2022-10-26T05:10:20;11.37;;;3.10;;
4122;SDS011;2075;51.062;6.920;2022-10-26T05:13:05;4.73;;;2.10;;
4122;SDS011;2075;51.062;6.920;2022-10-26T05:15:51;5.60;;;2.50;;
4122;SDS011;2075;51.062;6.920;2022-10-26T05:18:37;6.07;;;2.90;;
4122;SDS011;2075;51.062;6.920;2022-10-26T05:21:22;4.10;;;2.80;;
4122;SDS011;2075;51.062;6.920;2022-10-26T05:24:08;7.00;;;3.17;;
4122;SDS011;2075;51.062;6.920;2022-10-26T05:26:55;12.43;;;3.13;;
4122;SDS011;2075;51.062;6.920;2022-10-26T05:29:40;8.60;;;3.90;;
4122;SDS011;2075;51.062;6.920;2022-10-26T05:32:25;4.07;;;3.13;;
4122;SDS011;2075;51.062;6.920;2022-10-26T05:35:11;8.60;;;4.00;;
4122;SDS011;2075;51.062;6.920;2022-10-26T05:37:56;4.67;;;4.00;;
4122;SDS011;2075;51.062;6.920;2022-10-26T05:40:45;8.03;;;3.77;;
4122;SDS011;2075;51.062;6.920;2022-10-26T05:43:33;5.90;;;4.03;;
4122;SDS011;2075;51.062;6.920;2022-10-26T05:46:18;7.30;;;4.57;;
4122;SDS011;2075;51.062;6.920;2022-10-26T05:49:04;9.87;;;4.70;;
4122;SDS011;2075;51.062;6.920;2022-10-26T05:51:49;7.57;;;4.50;;
4122;SDS011;2075;51.062;6.920;2022-10-26T05:54:35;4.97;;;4.10;;
4122;SDS011;2075;51.062;6.920;2022-10-26T05:57:20;5.40;;;3.93;;
4122;SDS011;2075;51.062;6.920;2022-10-26T06:00:08;7.70;;;3.20;;
4122;SDS011;2075;51.062;6.920;2022-10-26T06:03:07;3.97;;;2.83;;
4122;SDS011;2075;51.062;6.920;2022-10-26T06:05:59;3.33;;;2.17;;
4122;SDS011;2075;51.062;6.920;2022-10-26T06:08:45;2.90;;;2.50;;
4122;SDS011;2075;51.062;6.920;2022-10-26T06:11:31;2.30;;;2.10;;
4122;SDS011;2075;51.062;6.920;2022-10-26T06:14:17;5.40;;;2.20;;
4122;SDS011;2075;51.062;6.920;2022-10-26T06:17:07;4.33;;;2.40;;
4122;SDS011;2075;51.062;6.920;2022-10-26T06:20:08;3.10;;;2.50;;
4122;SDS011;2075;51.062;6.920;2022-10-26T06:23:08;4.03;;;2.33;;
4122;SDS011;2075;51.062;6.920;2022-10-26T06:26:05;4.53;;;2.57;;
4122;SDS011;2075;51.062;6.920;2022-10-26T06:29:01;3.13;;;2.47;;
4122;SDS011;2075;51.062;6.920;2022-10-26T06:31:55;6.80;;;3.30;;
4122;SDS011;2075;51.062;6.920;2022-10-26T06:34:43;5.80;;;2.77;;
4122;SDS011;2075;51.062;6.920;2022-10-26T06:37:32;5.10;;;3.00;;
4122;SDS011;2075;51.062;6.920;2022-10-26T06:40:19;8.07;;;3.10;;
4122;SDS011;2075;51.062;6.920;2022-10-26T06:43:08;6.33;;;3.10;;
4122;SDS011;2075;51.062;6.920;2022-10-26T06:45:59;7.07;;;3.10;;
4122;SDS011;2075;51.062;6.920;2022-10-26T06:48:50;3.57;;;2.50;;
4122;SDS011;2075;51.062;6.920;2022-10-26T06:51:48;7.53;;;2.40;;
4122;SDS011;2075;51.062;6.920;2022-10-26T06:54:44;4.10;;;2.77;;
4122;SDS011;2075;51.062;6.920;2022-10-26T06:57:33;4.93;;;3.13;;
4122;SDS011;2075;51.062;6.920;2022-10-26T07:00:22;5.10;;;3.07;;
4122;SDS011;2075;51.062;6.920;2022-10-26T07:03:08;9.93;;;2.83;;
4122;SDS011;2075;51.062;6.920;2022-10-26T07:05:54;2.80;;;2.47;;
4122;SDS011;2075;51.062;6.920;2022-10-26T07:08:41;4.73;;;3.03;;
4122;SDS011;2075;51.062;6.920;2022-10-26T07:11:26;12.23;;;3.10;;
4122;SDS011;2075;51.062;6.920;2022-10-26T07:14:11;5.70;;;2.90;;
4122;SDS011;2075;51.062;6.920;2022-10-26T07:16:57;3.63;;;3.07;;
4122;SDS011;2075;51.062;6.920;2022-10-26T07:19:43;19.23;;;2.83;;
4122;SDS011;2075;51.062;6.920;2022-10-26T07:22:28;7.00;;;2.73;;
4122;SDS011;2075;51.062;6.920;2022-10-26T07:25:15;14.13;;;3.43;;
4122;SDS011;2075;51.062;6.920;2022-10-26T07:28:00;10.53;;;2.73;;
4122;SDS011;2075;51.062;6.920;2022-10-26T07:30:46;4.13;;;2.30;;
4122;SDS011;2075;51.062;6.920;2022-10-26T07:33:31;6.20;;;2.37;;
4122;SDS011;2075;51.062;6.920;2022-10-26T07:36:17;5.37;;;2.53;;
4122;SDS011;2075;51.062;6.920;2022-10-26T07:39:02;2.53;;;2.33;;
4122;SDS011;2075;51.062;6.920;2022-10-26T07:41:50;5.00;;;2.87;;
4122;SDS011;2075;51.062;6.920;2022-10-26T07:44:35;5.13;;;2.53;;
4122;SDS011;2075;51.062;6.920;2022-10-26T07:47:21;5.23;;;2.67;;
4122;SDS011;2075;51.062;6.920;2022-10-26T07:50:07;9.53;;;3.07;;
4122;SDS011;2075;51.062;6.920;2022-10-26T07:52:54;9.60;;;2.67;;
4122;SDS011;2075;51.062;6.920;2022-10-26T07:55:41;4.80;;;3.03;;
4122;SDS011;2075;51.062;6.920;2022-10-26T07:58:28;5.50;;;2.50;;
4122;SDS011;2075;51.062;6.920;2022-10-26T08:01:14;6.17;;;2.73;;
4122;SDS011;2075;51.062;6.920;2022-10-26T08:04:00;8.20;;;3.00;;
4122;SDS011;2075;51.062;6.920;2022-10-26T08:06:45;5.73;;;2.90;;
4122;SDS011;2075;51.062;6.920;2022-10-26T08:09:31;4.47;;;3.27;;
4122;SDS011;2075;51.062;6.920;2022-10-26T08:12:17;5.67;;;3.03;;
4122;SDS011;2075;51.062;6.920;2022-10-26T08:15:05;4.37;;;2.80;;
4122;SDS011;2075;51.062;6.920;2022-10-26T08:17:51;3.87;;;2.83;;
4122;SDS011;2075;51.062;6.920;2022-10-26T08:20:37;4.50;;;2.80;;
4122;SDS011;2075;51.062;6.920;2022-10-26T08:23:22;7.47;;;3.90;;
4122;SDS011;2075;51.062;6.920;2022-10-26T08:26:08;7.60;;;3.00;;
4122;SDS011;2075;51.062;6.920;2022-10-26T08:28:54;3.77;;;2.83;;
4122;SDS011;2075;51.062;6.920;2022-10-26T08:31:41;9.03;;;3.10;;
4122;SDS011;2075;51.062;6.920;2022-10-26T08:34:27;7.40;;;2.93;;
4122;SDS011;2075;51.062;6.920;2022-10-26T08:37:13;4.80;;;2.70;;
4122;SDS011;2075;51.062;6.920;2022-10-26T08:39:58;8.43;;;2.70;;
4122;SDS011;2075;51.062;6.920;2022-10-26T08:42:44;6.13;;;3.13;;
4122;SDS011;2075;51.062;6.920;2022-10-26T08:45:33;5.80;;;3.00;;
4122;SDS011;2075;51.062;6.920;2022-10-26T08:48:24;4.57;;;2.80;;
4122;SDS011;2075;51.062;6.920;2022-10-26T08:51:14;2.83;;;2.50;;
4122;SDS011;2075;51.062;6.920;2022-10-26T08:54:04;8.10;;;2.90;;
4122;SDS011;2075;51.062;6.920;2022-10-26T08:56:54;8.70;;;3.07;;
4122;SDS011;2075;51.062;6.920;2022-10-26T08:59:45;5.90;;;2.80;;
4122;SDS011;2075;51.062;6.920;2022-10-26T09:02:33;13.83;;;2.70;;
4122;SDS011;2075;51.062;6.920;2022-10-26T09:05:22;11.03;;;2.60;;
4122;SDS011;2075;51.062;6.920;2022-10-26T09:08:17;10.33;;;3.13;;
4122;SDS011;2075;51.062;6.920;2022-10-26T09:11:12;5.20;;;2.93;;
4122;SDS011;2075;51.062;6.920;2022-10-26T09:14:09;5.47;;;3.37;;
4122;SDS011;2075;51.062;6.920;2022-10-26T09:17:04;3.97;;;2.50;;
4122;SDS011;2075;51.062;6.920;2022-10-26T09:20:02;6.60;;;2.93;;
4122;SDS011;2075;51.062;6.920;2022-10-26T09:22:59;5.13;;;2.90;;
4122;SDS011;2075;51.062;6.920;2022-10-26T09:25:56;3.00;;;2.30;;
4122;SDS011;2075;51.062;6.920;2022-10-26T09:28:43;3.80;;;2.80;;
4122;SDS011;2075;51.062;6.920;2022-10-26T09:31:38;5.93;;;3.13;;
4122;SDS011;2075;51.062;6.920;2022-10-26T09:34:26;10.40;;;3.60;;
4122;SDS011;2075;51.062;6.920;2022-10-26T09:37:16;3.57;;;2.20;;
4122;SDS011;2075;51.062;6.920;2022-10-26T09:40:07;5.97;;;2.40;;
4122;SDS011;2075;51.062;6.920;2022-10-26T09:42:57;8.20;;;3.30;;
4122;SDS011;2075;51.062;6.920;2022-10-26T09:45:49;5.70;;;2.77;;
4122;SDS011;2075;51.062;6.920;2022-10-26T09:48:37;4.47;;;2.63;;
4122;SDS011;2075;51.062;6.920;2022-10-26T09:51:27;6.07;;;2.87;;
4122;SDS011;2075;51.062;6.920;2022-10-26T09:54:14;8.83;;;2.63;;
4122;SDS011;2075;51.062;6.920;2022-10-26T09:57:02;7.03;;;2.60;;
4122;SDS011;2075;51.062;6.920;2022-10-26T09:59:49;7.33;;;2.20;;
4122;SDS011;2075;51.062;6.920;2022-10-26T10:02:38;5.00;;;3.20;;
4122;SDS011;2075;51.062;6.920;2022-10-26T10:05:29;2.70;;;2.50;;
4122;SDS011;2075;51.062;6.920;2022-10-26T10:08:16;6.50;;;3.23;;
4122;SDS011;2075;51.062;6.920;2022-10-26T10:11:04;5.40;;;2.67;;
4122;SDS011;2075;51.062;6.920;2022-10-26T10:13:53;5.80;;;2.40;;
4122;SDS011;2075;51.062;6.920;2022-10-26T10:16:38;4.63;;;2.67;;
4122;SDS011;2075;51.062;6.920;2022-10-26T10:19:25;5.63;;;2.50;;
4122;SDS011;2075;51.062;6.920;2022-10-26T10:22:18;12.03;;;3.53;;
4122;SDS011;2075;51.062;6.920;2022-10-26T10:25:20;4.93;;;2.53;;
4122;SDS011;2075;51.062;6.920;2022-10-26T10:28:18;5.70;;;3.13;;
4122;SDS011;2075;51.062;6.920;2022-10-26T10:31:17;9.53;;;2.93;;
4122;SDS011;2075;51.062;6.920;2022-10-26T10:34:13;8.60;;;2.80;;
4122;SDS011;2075;51.062;6.920;2022-10-26T10:37:00;3.50;;;2.67;;
4122;SDS011;2075;51.062;6.920;2022-10-26T10:39:47;7.83;;;3.10;;
4122;SDS011;2075;51.062;6.920;2022-10-26T10:42:33;9.17;;;3.20;;
4122;SDS011;2075;51.062;6.920;2022-10-26T10:45:22;4.90;;;2.90;;
4122;SDS011;2075;51.062;6.920;2022-10-26T10:48:14;5.10;;;2.40;;
4122;SDS011;2075;51.062;6.920;2022-10-26T10:51:03;7.47;;;2.70;;
4122;SDS011;2075;51.062;6.920;2022-10-26T10:53:55;6.00;;;2.70;;
4122;SDS011;2075;51.062;6.920;2022-10-26T10:56:42;5.23;;;2.60;;
4122;SDS011;2075;51.062;6.920;2022-10-26T10:59:36;9.00;;;3.03;;
4122;SDS011;2075;51.062;6.920;2022-10-26T11:05:49;5.00;;;2.60;;
4122;SDS011;2075;51.062;6.920;2022-10-26T11:08:45;5.00;;;2.57;;
4122;SDS011;2075;51.062;6.920;2022-10-26T11:11:35;7.40;;;2.60;;
4122;SDS011;2075;51.062;6.920;2022-10-26T11:14:25;5.10;;;2.63;;
4122;SDS011;2075;51.062;6.920;2022-10-26T11:17:14;5.13;;;2.87;;
4122;SDS011;2075;51.062;6.920;2022-10-26T11:20:04;3.20;;;2.50;;
4122;SDS011;2075;51.062;6.920;2022-10-26T11:22:59;4.13;;;2.30;;
4122;SDS011;2075;51.062;6.920;2022-10-26T11:25:50;4.50;;;2.50;;
4122;SDS011;2075;51.062;6.920;2022-10-26T11:28:41;6.10;;;2.57;;
4122;SDS011;2075;51.062;6.920;2022-10-26T11:31:33;6.10;;;2.57;;
4122;SDS011;2075;51.062;6.920;2022-10-26T11:34:26;4.20;;;2.03;;
4122;SDS011;2075;51.062;6.920;2022-10-26T11:37:16;3.80;;;2.13;;
4122;SDS011;2075;51.062;6.920;2022-10-26T11:40:13;6.90;;;2.33;;
4122;SDS011;2075;51.062;6.920;2022-10-26T11:43:10;3.30;;;2.00;;
4122;SDS011;2075;51.062;6.920;2022-10-26T11:46:01;5.47;;;2.27;;
4122;SDS011;2075;51.062;6.920;2022-10-26T11:49:00;2.70;;;1.97;;
4122;SDS011;2075;51.062;6.920;2022-10-26T11:51:54;6.40;;;2.50;;
4122;SDS011;2075;51.062;6.920;2022-10-26T11:54:44;3.30;;;1.90;;
4122;SDS011;2075;51.062;6.920;2022-10-26T11:57:38;5.30;;;2.30;;
4122;SDS011;2075;51.062;6.920;2022-10-26T12:00:29;8.43;;;2.10;;
4122;SDS011;2075;51.062;6.920;2022-10-26T12:03:17;4.13;;;2.30;;
4122;SDS011;2075;51.062;6.920;2022-10-26T12:06:05;3.93;;;1.53;;
4122;SDS011;2075;51.062;6.920;2022-10-26T12:08:52;2.97;;;1.80;;
4122;SDS011;2075;51.062;6.920;2022-10-26T12:11:46;2.63;;;1.37;;
4122;SDS011;2075;51.062;6.920;2022-10-26T12:14:38;2.50;;;1.73;;
4122;SDS011;2075;51.062;6.920;2022-10-26T12:17:30;2.07;;;1.50;;
4122;SDS011;2075;51.062;6.920;2022-10-26T12:23:55;1.90;;;1.80;;
4122;SDS011;2075;51.062;6.920;2022-10-26T12:26:48;1.70;;;1.60;;
4122;SDS011;2075;51.062;6.920;2022-10-26T12:29:43;9.13;;;1.60;;
4122;SDS011;2075;51.062;6.920;2022-10-26T12:35:38;2.83;;;1.93;;
4122;SDS011;2075;51.062;6.920;2022-10-26T12:41:40;1.93;;;1.73;;
4122;SDS011;2075;51.062;6.920;2022-10-26T12:44:59;5.90;;;1.73;;
4122;SDS011;2075;51.062;6.920;2022-10-26T12:48:03;1.50;;;1.43;;
4122;SDS011;2075;51.062;6.920;2022-10-26T12:50:49;3.47;;;1.40;;
4122;SDS011;2075;51.062;6.920;2022-10-26T12:53:34;3.40;;;1.50;;
4122;SDS011;2075;51.062;6.920;2022-10-26T12:56:22;4.77;;;1.70;;
4122;SDS011;2075;51.062;6.920;2022-10-26T12:59:17;6.10;;;2.23;;
4122;SDS011;2075;51.062;6.920;2022-10-26T13:05:30;4.20;;;1.77;;
4122;SDS011;2075;51.062;6.920;2022-10-26T13:08:26;1.43;;;1.33;;
4122;SDS011;2075;51.062;6.920;2022-10-26T13:11:15;1.63;;;1.53;;
4122;SDS011;2075;51.062;6.920;2022-10-26T13:14:03;1.70;;;1.50;;
4122;SDS011;2075;51.062;6.920;2022-10-26T13:16:51;1.93;;;1.40;;
4122;SDS011;2075;51.062;6.920;2022-10-26T13:19:40;2.03;;;1.70;;
4122;SDS011;2075;51.062;6.920;2022-10-26T13:22:27;2.33;;;1.13;;
4122;SDS011;2075;51.062;6.920;2022-10-26T13:25:17;1.63;;;1.50;;
4122;SDS011;2075;51.062;6.920;2022-10-26T13:28:06;10.17;;;1.53;;
4122;SDS011;2075;51.062;6.920;2022-10-26T13:31:19;4.70;;;1.30;;
4122;SDS011;2075;51.062;6.920;2022-10-26T13:34:43;1.80;;;1.70;;
4122;SDS011;2075;51.062;6.920;2022-10-26T13:37:31;1.60;;;1.50;;
4122;SDS011;2075;51.062;6.920;2022-10-26T13:40:19;1.87;;;1.57;;
4122;SDS011;2075;51.062;6.920;2022-10-26T13:43:10;1.87;;;1.77;;
4122;SDS011;2075;51.062;6.920;2022-10-26T13:46:04;1.70;;;1.60;;
4122;SDS011;2075;51.062;6.920;2022-10-26T13:48:49;1.43;;;1.33;;
4122;SDS011;2075;51.062;6.920;2022-10-26T13:51:42;3.90;;;2.00;;
4122;SDS011;2075;51.062;6.920;2022-10-26T13:54:32;1.50;;;1.40;;
4122;SDS011;2075;51.062;6.920;2022-10-26T13:57:21;3.43;;;1.67;;
4122;SDS011;2075;51.062;6.920;2022-10-26T14:00:14;2.10;;;1.43;;
4122;SDS011;2075;51.062;6.920;2022-10-26T14:03:13;2.23;;;2.10;;
4122;SDS011;2075;51.062;6.920;2022-10-26T14:05:59;2.37;;;1.70;;
4122;SDS011;2075;51.062;6.920;2022-10-26T14:08:49;2.40;;;1.40;;
4122;SDS011;2075;51.062;6.920;2022-10-26T14:11:42;1.80;;;1.63;;
4122;SDS011;2075;51.062;6.920;2022-10-26T14:14:32;2.93;;;1.80;;
4122;SDS011;2075;51.062;6.920;2022-10-26T14:17:20;2.80;;;1.60;;
4122;SDS011;2075;51.062;6.920;2022-10-26T14:20:11;3.07;;;1.70;;
4122;SDS011;2075;51.062;6.920;2022-10-26T14:23:02;1.97;;;1.37;;
4122;SDS011;2075;51.062;6.920;2022-10-26T14:25:52;1.50;;;1.40;;
4122;SDS011;2075;51.062;6.920;2022-10-26T14:28:42;2.67;;;1.73;;
4122;SDS011;2075;51.062;6.920;2022-10-26T14:31:32;2.00;;;1.47;;
4122;SDS011;2075;51.062;6.920;2022-10-26T14:34:19;1.90;;;1.80;;
4122;SDS011;2075;51.062;6.920;2022-10-26T14:37:04;2.43;;;1.60;;
4122;SDS011;2075;51.062;6.920;2022-10-26T14:39:53;1.50;;;1.40;;
4122;SDS011;2075;51.062;6.920;2022-10-26T14:42:40;1.80;;;1.70;;
4122;SDS011;2075;51.062;6.920;2022-10-26T14:45:30;2.30;;;1.50;;
4122;SDS011;2075;51.062;6.920;2022-10-26T14:48:22;2.00;;;1.50;;
4122;SDS011;2075;51.062;6.920;2022-10-26T14:51:09;7.03;;;1.70;;
4122;SDS011;2075;51.062;6.920;2022-10-26T14:54:00;5.10;;;1.70;;
4122;SDS011;2075;51.062;6.920;2022-10-26T14:56:47;2.90;;;1.50;;
4122;SDS011;2075;51.062;6.920;2022-10-26T14:59:35;1.67;;;1.57;;
4122;SDS011;2075;51.062;6.920;2022-10-26T15:02:25;4.77;;;2.20;;
4122;SDS011;2075;51.062;6.920;2022-10-26T15:05:18;3.70;;;1.50;;
4122;SDS011;2075;51.062;6.920;2022-10-26T15:11:30;3.23;;;2.17;;
4122;SDS011;2075;51.062;6.920;2022-10-26T15:14:17;2.03;;;1.80;;
4122;SDS011;2075;51.062;6.920;2022-10-26T15:17:04;3.30;;;1.80;;
4122;SDS011;2075;51.062;6.920;2022-10-26T15:19:50;2.07;;;1.57;;
4122;SDS011;2075;51.062;6.920;2022-10-26T15:22:36;3.10;;;1.50;;
4122;SDS011;2075;51.062;6.920;2022-10-26T15:25:22;1.63;;;1.53;;
4122;SDS011;2075;51.062;6.920;2022-10-26T15:28:19;4.80;;;3.23;;
4122;SDS011;2075;51.062;6.920;2022-10-26T15:31:07;3.37;;;2.50;;
4122;SDS011;2075;51.062;6.920;2022-10-26T15:34:15;1.93;;;1.53;;
4122;SDS011;2075;51.062;6.920;2022-10-26T15:37:00;2.00;;;1.90;;
4122;SDS011;2075;51.062;6.920;2022-10-26T15:39:46;3.47;;;1.80;;
4122;SDS011;2075;51.062;6.920;2022-10-26T15:42:31;1.50;;;1.40;;
4122;SDS011;2075;51.062;6.920;2022-10-26T15:45:21;9.13;;;1.80;;
4122;SDS011;2075;51.062;6.920;2022-10-26T15:48:16;4.63;;;2.33;;
4122;SDS011;2075;51.062;6.920;2022-10-26T15:51:05;5.60;;;2.30;;
4122;SDS011;2075;51.062;6.920;2022-10-26T15:53:51;6.90;;;2.33;;
4122;SDS011;2075;51.062;6.920;2022-10-26T15:56:37;6.00;;;2.40;;
4122;SDS011;2075;51.062;6.920;2022-10-26T15:59:23;8.60;;;2.60;;
4122;SDS011;2075;51.062;6.920;2022-10-26T16:02:12;8.67;;;2.50;;
4122;SDS011;2075;51.062;6.920;2022-10-26T16:04:58;14.50;;;2.00;;
4122;SDS011;2075;51.062;6.920;2022-10-26T16:07:45;10.03;;;3.00;;
4122;SDS011;2075;51.062;6.920;2022-10-26T16:10:32;5.30;;;2.70;;
4122;SDS011;2075;51.062;6.920;2022-10-26T16:13:18;5.13;;;2.10;;
4122;SDS011;2075;51.062;6.920;2022-10-26T16:16:03;5.30;;;2.47;;
4122;SDS011;2075;51.062;6.920;2022-10-26T16:18:55;5.97;;;2.17;;
4122;SDS011;2075;51.062;6.920;2022-10-26T16:21:40;7.40;;;2.17;;
4122;SDS011;2075;51.062;6.920;2022-10-26T16:24:28;5.37;;;2.50;;
4122;SDS011;2075;51.062;6.920;2022-10-26T16:27:15;6.03;;;2.00;;
4122;SDS011;2075;51.062;6.920;2022-10-26T16:30:01;3.67;;;1.73;;
4122;SDS011;2075;51.062;6.920;2022-10-26T16:32:46;4.53;;;2.00;;
4122;SDS011;2075;51.062;6.920;2022-10-26T16:35:31;5.17;;;2.57;;
4122;SDS011;2075;51.062;6.920;2022-10-26T16:38:17;4.67;;;2.57;;
4122;SDS011;2075;51.062;6.920;2022-10-26T16:41:04;7.10;;;1.87;;
4122;SDS011;2075;51.062;6.920;2022-10-26T16:43:51;4.60;;;3.50;;
4122;SDS011;2075;51.062;6.920;2022-10-26T16:46:36;2.70;;;2.13;;
4122;SDS011;2075;51.062;6.920;2022-10-26T16:49:22;2.70;;;1.63;;
4122;SDS011;2075;51.062;6.920;2022-10-26T16:52:07;7.10;;;1.90;;
4122;SDS011;2075;51.062;6.920;2022-10-26T16:54:56;1.77;;;1.67;;
4122;SDS011;2075;51.062;6.920;2022-10-26T16:57:43;12.90;;;2.73;;
4122;SDS011;2075;51.062;6.920;2022-10-26T17:00:28;7.90;;;3.53;;
4122;SDS011;2075;51.062;6.920;2022-10-26T17:03:14;13.10;;;4.50;;
4122;SDS011;2075;51.062;6.920;2022-10-26T17:06:00;7.40;;;3.17;;
4122;SDS011;2075;51.062;6.920;2022-10-26T17:08:46;7.67;;;3.00;;
4122;SDS011;2075;51.062;6.920;2022-10-26T17:11:32;4.00;;;3.17;;
4122;SDS011;2075;51.062;6.920;2022-10-26T17:14:20;8.83;;;2.83;;
4122;SDS011;2075;51.062;6.920;2022-10-26T17:17:05;5.50;;;3.40;;
4122;SDS011;2075;51.062;6.920;2022-10-26T17:19:51;9.87;;;4.37;;
4122;SDS011;2075;51.062;6.920;2022-10-26T17:22:36;8.40;;;4.03;;
4122;SDS011;2075;51.062;6.920;2022-10-26T17:25:22;8.80;;;3.80;;
4122;SDS011;2075;51.062;6.920;2022-10-26T17:28:07;9.50;;;4.93;;
4122;SDS011;2075;51.062;6.920;2022-10-26T17:31:01;7.13;;;4.20;;
4122;SDS011;2075;51.062;6.920;2022-10-26T17:33:48;7.80;;;3.60;;
4122;SDS011;2075;51.062;6.920;2022-10-26T17:36:34;3.53;;;2.60;;
4122;SDS011;2075;51.062;6.920;2022-10-26T17:39:19;3.63;;;3.17;;
4122;SDS011;2075;51.062;6.920;2022-10-26T17:42:06;4.77;;;3.73;;
4122;SDS011;2075;51.062;6.920;2022-10-26T17:44:55;7.70;;;3.70;;
4122;SDS011;2075;51.062;6.920;2022-10-26T17:47:42;13.20;;;3.80;;
4122;SDS011;2075;51.062;6.920;2022-10-26T17:50:28;10.20;;;3.67;;